Time;durP1;ratioP1;P1;durP2;ratioP2;P2;SDS_P1;SDS_P2;PMS_P1;PMS_P2;Temp;Humidity;BMP_temperature;BMP_pressure;BME280_temperature;BME280_humidity;BME280_pressure;Samples;Min_cycle;Max_cycle;Signal;HPM_P1;HPM_P2
2024/03/02 00:00:13;;;;;;;13.40;11.07;;;12.50;63.90;;;;;;5005617;28;20488;-58
2024/03/02 00:02:45;;;;;;;12.40;10.70;;;12.50;63.70;;;;;;5006624;28;20273;-58
2024/03/02 00:05:12;;;;;;;14.63;11.70;;;12.50;63.50;;;;;;5007813;28;20425;-59
2024/03/02 00:07:41;;;;;;;13.53;10.17;;;12.40;63.40;;;;;;5008436;28;20437;-57
2024/03/02 00:10:10;;;;;;;14.80;12.50;;;12.40;63.60;;;;;;5006735;28;20490;-59
2024/03/02 00:12:36;;;;;;;14.07;11.77;;;12.40;63.30;;;;;;5009790;28;20519;-59
2024/03/02 00:15:26;;;;;;;14.80;11.00;;;12.40;63.10;;;;;;5006353;28;20531;-59
2024/03/02 00:17:53;;;;;;;12.93;10.60;;;12.40;63.10;;;;;;5008879;28;21025;-57
2024/03/02 00:20:22;;;;;;;14.07;11.10;;;12.40;63.00;;;;;;5009571;28;20464;-57
2024/03/02 00:22:48;;;;;;;11.43;10.00;;;12.40;63.00;;;;;;5007675;28;20511;-58
2024/03/02 00:25:13;;;;;;;12.23;10.93;;;12.40;62.90;;;;;;5007427;28;20432;-57
2024/03/02 00:27:40;;;;;;;12.60;10.73;;;12.40;62.90;;;;;;5003603;28;20304;-59
2024/03/02 00:30:37;;;;;;;11.90;10.30;;;12.40;62.60;;;;;;5009771;28;20232;-58
2024/03/02 00:33:07;;;;;;;12.83;11.30;;;12.30;62.80;;;;;;5002221;28;20956;-57
2024/03/02 00:35:32;;;;;;;14.57;10.83;;;12.30;63.10;;;;;;5001386;28;21878;-59
2024/03/02 00:37:58;;;;;;;14.30;10.83;;;12.30;63.40;;;;;;5001204;28;20463;-58
2024/03/02 00:40:29;;;;;;;13.23;11.27;;;12.20;63.20;;;;;;5002527;28;20277;-59
2024/03/02 00:42:56;;;;;;;13.93;10.70;;;12.20;63.60;;;;;;5007617;28;20697;-58
2024/03/02 00:45:21;;;;;;;13.53;10.40;;;12.00;63.90;;;;;;5007347;28;20436;-58
2024/03/02 00:47:47;;;;;;;12.03;10.20;;;12.00;64.10;;;;;;5003647;28;20976;-60
2024/03/02 00:50:14;;;;;;;12.70;11.30;;;11.90;64.40;;;;;;5002640;28;20182;-59
2024/03/02 00:52:40;;;;;;;14.83;11.73;;;11.80;64.40;;;;;;5001356;28;20251;-58
2024/03/02 00:55:07;;;;;;;14.63;10.50;;;11.80;65.30;;;;;;5000365;28;20885;-59
2024/03/02 00:57:34;;;;;;;12.10;10.00;;;11.90;64.90;;;;;;5000486;28;20511;-58
2024/03/02 01:00:00;;;;;;;12.03;9.70;;;12.00;64.40;;;;;;5002164;28;20492;-59
2024/03/02 01:02:26;;;;;;;13.03;11.17;;;12.00;64.00;;;;;;5000570;28;20429;-58
2024/03/02 01:04:52;;;;;;;12.03;10.33;;;11.80;64.70;;;;;;5000920;28;20477;-59
2024/03/02 01:07:17;;;;;;;12.97;10.30;;;11.70;65.30;;;;;;5001021;28;20905;-57
2024/03/02 01:09:43;;;;;;;12.40;10.67;;;11.80;64.90;;;;;;5002080;28;20252;-58
2024/03/02 01:12:09;;;;;;;13.10;10.13;;;11.90;64.20;;;;;;5001072;28;20204;-58
2024/03/02 01:14:35;;;;;;;14.30;11.07;;;11.90;63.80;;;;;;5000910;28;20210;-60
2024/03/02 01:17:03;;;;;;;14.60;12.03;;;11.90;63.90;;;;;;4999530;28;20236;-58
2024/03/02 01:19:29;;;;;;;13.70;10.97;;;11.90;63.80;;;;;;5000675;28;20495;-59
2024/03/02 01:21:54;;;;;;;11.80;9.60;;;11.90;63.50;;;;;;5001077;28;20433;-58
2024/03/02 01:24:20;;;;;;;13.47;11.07;;;12.00;63.40;;;;;;5000886;28;20186;-60
2024/03/02 01:26:45;;;;;;;13.50;10.77;;;12.00;63.20;;;;;;5000530;28;20293;-59
2024/03/02 01:29:11;;;;;;;13.50;11.47;;;12.00;63.00;;;;;;5005424;28;20209;-59
2024/03/02 01:31:36;;;;;;;14.70;11.37;;;12.00;62.60;;;;;;5001331;28;20212;-58
2024/03/02 01:34:02;;;;;;;13.83;11.23;;;11.90;62.70;;;;;;5004074;28;20210;-56
2024/03/02 01:36:28;;;;;;;12.03;10.30;;;11.70;62.70;;;;;;5006012;28;20213;-59
2024/03/02 01:38:53;;;;;;;13.00;10.77;;;11.70;63.10;;;;;;5007975;28;20656;-58
2024/03/02 01:41:19;;;;;;;13.70;11.67;;;11.70;63.00;;;;;;5009016;28;20306;-60
2024/03/02 01:43:44;;;;;;;12.43;10.00;;;11.80;63.00;;;;;;5007568;28;20252;-60
2024/03/02 01:46:10;;;;;;;12.57;10.47;;;11.80;62.80;;;;;;5008780;28;20197;-60
2024/03/02 01:48:35;;;;;;;14.10;11.07;;;11.80;62.60;;;;;;5007537;28;20747;-58
2024/03/02 01:51:01;;;;;;;12.00;10.70;;;11.80;62.30;;;;;;5007888;28;20182;-59
2024/03/02 01:53:28;;;;;;;11.80;9.67;;;11.90;62.30;;;;;;5009005;28;20192;-60
2024/03/02 01:55:53;;;;;;;13.87;11.60;;;11.80;62.30;;;;;;5009639;28;20281;-60
2024/03/02 01:58:19;;;;;;;15.67;12.03;;;11.80;62.30;;;;;;5007073;28;20519;-58
2024/03/02 02:00:45;;;;;;;10.80;9.63;;;11.80;62.90;;;;;;5008349;28;20198;-58
2024/03/02 02:03:11;;;;;;;13.70;11.00;;;11.80;62.10;;;;;;5006529;28;20186;-58
2024/03/02 02:05:37;;;;;;;14.10;11.20;;;11.80;62.30;;;;;;5008297;28;20281;-58
2024/03/02 02:08:03;;;;;;;13.90;9.93;;;11.80;62.10;;;;;;5007613;28;20441;-58
2024/03/02 02:10:28;;;;;;;12.70;10.40;;;11.80;62.30;;;;;;5008025;28;20730;-60
2024/03/02 02:12:54;;;;;;;12.43;10.50;;;11.80;62.30;;;;;;5007953;28;20186;-58
2024/03/02 02:15:30;;;;;;;14.83;11.13;;;11.60;62.80;;;;;;5006362;28;20251;-60
2024/03/02 02:17:57;;;;;;;12.73;11.37;;;11.60;63.20;;;;;;5003886;28;20210;-59
2024/03/02 02:20:24;;;;;;;13.80;11.10;;;11.60;63.00;;;;;;5007549;28;20433;-58
2024/03/02 02:23:04;;;;;;;14.30;11.67;;;11.50;63.10;;;;;;5008068;28;20433;-57
2024/03/02 02:25:30;;;;;;;14.03;11.30;;;11.30;63.70;;;;;;5008473;28;20499;-58
2024/03/02 02:27:56;;;;;;;12.47;10.63;;;11.20;64.50;;;;;;5004834;28;20528;-58
2024/03/02 02:30:30;;;;;;;11.63;10.40;;;11.20;65.10;;;;;;5007222;28;20186;-57
2024/03/02 02:32:56;;;;;;;13.13;10.93;;;11.30;63.60;;;;;;5008333;28;20523;-59
2024/03/02 02:35:24;;;;;;;13.37;10.47;;;11.00;63.70;;;;;;5009726;28;20470;-56
2024/03/02 02:37:50;;;;;;;13.37;11.40;;;10.80;65.70;;;;;;5004976;28;20471;-58
2024/03/02 02:40:16;;;;;;;14.83;11.90;;;10.70;65.30;;;;;;5003312;28;20468;-57
2024/03/02 02:42:42;;;;;;;12.77;11.37;;;10.60;66.00;;;;;;5003808;28;20437;-57
2024/03/02 02:45:08;;;;;;;22.07;11.63;;;10.40;66.40;;;;;;5002388;28;20455;-59
2024/03/02 02:47:37;;;;;;;12.30;10.83;;;10.40;66.80;;;;;;5004622;28;21107;-58
2024/03/02 02:50:04;;;;;;;13.43;12.00;;;10.20;67.10;;;;;;5005163;28;20789;-60
2024/03/02 02:52:36;;;;;;;14.60;11.60;;;10.10;67.20;;;;;;5007490;28;20444;-59
2024/03/02 02:55:03;;;;;;;15.63;12.23;;;9.80;69.10;;;;;;5003873;28;20589;-57
2024/03/02 02:57:31;;;;;;;13.53;11.10;;;9.60;70.90;;;;;;5004398;28;20519;-57
2024/03/02 02:59:57;;;;;;;13.77;10.83;;;9.60;70.90;;;;;;5008697;28;20449;-57
2024/03/02 03:02:22;;;;;;;14.47;11.00;;;9.80;70.60;;;;;;5004137;28;20453;-57
2024/03/02 03:04:48;;;;;;;14.20;11.17;;;9.70;70.40;;;;;;5004318;28;20273;-57
2024/03/02 03:07:13;;;;;;;17.00;11.30;;;9.80;71.10;;;;;;5002535;28;20206;-58
2024/03/02 03:09:39;;;;;;;14.63;11.40;;;9.90;70.00;;;;;;5003922;28;20244;-58
2024/03/02 03:12:04;;;;;;;15.63;11.70;;;9.90;69.70;;;;;;5002790;28;20201;-58
2024/03/02 03:14:30;;;;;;;14.53;10.97;;;9.50;70.90;;;;;;5008702;28;20689;-59
2024/03/02 03:16:56;;;;;;;12.80;10.40;;;9.40;72.70;;;;;;5004467;28;20941;-58
2024/03/02 03:19:22;;;;;;;11.67;10.43;;;9.50;72.10;;;;;;5005024;28;20481;-59
2024/03/02 03:21:47;;;;;;;14.37;11.37;;;9.60;71.70;;;;;;5005532;28;20203;-58
2024/03/02 03:24:13;;;;;;;12.70;10.03;;;9.70;70.90;;;;;;5003409;28;20182;-59
2024/03/02 03:26:38;;;;;;;11.83;10.33;;;9.70;70.30;;;;;;5001938;28;20214;-58
2024/03/02 03:29:04;;;;;;;14.57;11.30;;;9.80;69.80;;;;;;5010418;28;20788;-57
2024/03/02 03:31:29;;;;;;;15.63;11.97;;;9.90;69.60;;;;;;5005039;28;20252;-57
2024/03/02 03:33:55;;;;;;;14.40;9.87;;;10.10;67.80;;;;;;5008471;28;20213;-56
2024/03/02 03:36:21;;;;;;;12.13;9.90;;;10.20;67.00;;;;;;5002773;28;20240;-57
2024/03/02 03:38:46;;;;;;;14.83;10.30;;;10.40;66.30;;;;;;5004345;28;20680;-57
2024/03/02 03:41:12;;;;;;;10.87;9.77;;;10.50;65.60;;;;;;5003957;28;20767;-58
2024/03/02 03:43:37;;;;;;;14.80;10.10;;;10.60;65.20;;;;;;5004618;28;20197;-59
2024/03/02 03:46:03;;;;;;;13.63;10.83;;;10.60;64.70;;;;;;5003054;28;20209;-59
2024/03/02 03:48:30;;;;;;;15.10;11.33;;;10.60;64.50;;;;;;5008908;28;20247;-59
2024/03/02 03:50:56;;;;;;;14.57;11.50;;;10.60;64.30;;;;;;5006402;28;20571;-59
2024/03/02 03:53:22;;;;;;;15.27;11.47;;;10.60;64.20;;;;;;5003094;28;20445;-59
2024/03/02 03:55:49;;;;;;;11.90;10.30;;;10.70;64.10;;;;;;5006115;28;20518;-57
2024/03/02 03:58:16;;;;;;;13.10;10.83;;;10.60;63.80;;;;;;5006623;28;20193;-56
2024/03/02 04:00:42;;;;;;;13.43;10.90;;;10.50;64.30;;;;;;5005937;28;20436;-58
2024/03/02 04:03:08;;;;;;;12.90;10.00;;;10.50;64.40;;;;;;5008384;28;20474;-58
2024/03/02 04:05:33;;;;;;;12.07;9.80;;;10.60;64.10;;;;;;5005281;28;20941;-60
2024/03/02 04:08:00;;;;;;;13.10;10.17;;;10.60;64.60;;;;;;5010030;28;20253;-60
2024/03/02 04:10:25;;;;;;;12.80;10.30;;;10.70;63.70;;;;;;5007237;28;20178;-57
2024/03/02 04:12:51;;;;;;;15.70;11.90;;;10.70;63.40;;;;;;5009927;28;20499;-57
2024/03/02 04:15:18;;;;;;;11.70;10.50;;;10.60;63.40;;;;;;5007718;28;20261;-58
2024/03/02 04:17:44;;;;;;;11.93;10.23;;;10.70;63.00;;;;;;5009050;28;20206;-58
2024/03/02 04:20:12;;;;;;;12.80;9.63;;;10.60;62.90;;;;;;5009722;28;20511;-59
2024/03/02 04:22:38;;;;;;;10.93;9.80;;;10.60;63.00;;;;;;5009230;28;20614;-60
2024/03/02 04:25:07;;;;;;;11.13;9.20;;;10.60;63.00;;;;;;5008984;28;20425;-59
2024/03/02 04:27:33;;;;;;;12.50;10.63;;;10.50;63.20;;;;;;5009030;28;20243;-55
2024/03/02 04:30:00;;;;;;;13.87;11.80;;;10.20;63.80;;;;;;5006162;28;20443;-59
2024/03/02 04:32:26;;;;;;;15.17;10.57;;;9.90;66.10;;;;;;5001833;28;20580;-57
2024/03/02 04:34:51;;;;;;;12.27;10.40;;;9.80;67.00;;;;;;5005241;28;21065;-57
2024/03/02 04:37:17;;;;;;;12.40;10.13;;;9.80;67.40;;;;;;5003183;28;20485;-60
2024/03/02 04:39:43;;;;;;;13.47;9.70;;;9.80;67.20;;;;;;5002084;28;20669;-58
2024/03/02 04:42:08;;;;;;;11.87;9.93;;;10.00;66.50;;;;;;5002829;28;20680;-57
2024/03/02 04:44:34;;;;;;;13.33;9.83;;;10.10;65.20;;;;;;5007627;28;20193;-59
2024/03/02 04:46:59;;;;;;;13.90;10.43;;;10.10;64.70;;;;;;5006222;28;20224;-56
2024/03/02 04:49:25;;;;;;;13.50;10.73;;;10.10;64.30;;;;;;5004827;28;20196;-58
2024/03/02 04:51:51;;;;;;;12.10;10.00;;;9.90;65.70;;;;;;5004871;28;20217;-59
2024/03/02 04:54:17;;;;;;;13.33;10.77;;;9.90;66.20;;;;;;5002288;28;20221;-58
2024/03/02 04:56:49;;;;;;;13.57;10.60;;;9.90;66.20;;;;;;5001717;28;20705;-57
2024/03/02 04:59:18;;;;;;;15.07;9.80;;;9.80;66.10;;;;;;5000912;28;20194;-58
2024/03/02 05:01:44;;;;;;;13.00;10.20;;;9.90;65.80;;;;;;4999604;28;20447;-56
2024/03/02 05:04:13;;;;;;;13.80;10.20;;;9.90;66.00;;;;;;5000235;28;20445;-60
2024/03/02 05:06:42;;;;;;;13.13;9.90;;;9.80;66.10;;;;;;5004780;28;20461;-60
2024/03/02 05:09:09;;;;;;;14.33;11.20;;;9.80;65.90;;;;;;5000732;28;20480;-59
2024/03/02 05:14:04;;;;;;;15.83;11.33;;;9.50;67.70;;;;;;5000756;28;20499;-59
2024/03/02 05:16:33;;;;;;;12.27;10.43;;;9.20;69.30;;;;;;5004707;28;20483;-58
2024/03/02 05:18:59;;;;;;;14.17;10.70;;;9.10;70.10;;;;;;5003177;28;20441;-60
2024/03/02 05:21:24;;;;;;;13.63;10.50;;;9.00;71.20;;;;;;5001285;28;20975;-59
2024/03/02 05:23:50;;;;;;;14.97;11.33;;;8.90;72.10;;;;;;5002447;28;20248;-60
2024/03/02 05:26:16;;;;;;;14.67;11.07;;;8.70;73.00;;;;;;5002129;28;20240;-60
2024/03/02 05:28:43;;;;;;;17.00;12.03;;;8.90;73.10;;;;;;5003438;28;20300;-60
2024/03/02 05:31:14;;;;;;;14.50;12.50;;;9.10;71.80;;;;;;5001776;28;20532;-58
2024/03/02 05:33:40;;;;;;;15.13;11.33;;;9.20;71.30;;;;;;5004497;28;20556;-59
2024/03/02 05:36:06;;;;;;;14.97;12.13;;;9.10;71.70;;;;;;5006009;28;20512;-61
2024/03/02 05:38:32;;;;;;;16.40;11.13;;;9.10;71.50;;;;;;5008346;28;20189;-60
2024/03/02 05:40:57;;;;;;;14.60;11.13;;;9.00;72.10;;;;;;5006797;28;20434;-60
2024/03/02 05:43:23;;;;;;;18.40;12.90;;;8.90;72.50;;;;;;5001343;28;21022;-58
2024/03/02 05:45:49;;;;;;;13.30;10.87;;;8.90;73.40;;;;;;5000847;28;20178;-60
2024/03/02 05:48:14;;;;;;;16.03;12.30;;;9.00;73.00;;;;;;5004131;28;20182;-59
2024/03/02 05:50:40;;;;;;;18.70;12.40;;;9.00;72.30;;;;;;5005207;28;20189;-58
2024/03/02 05:53:06;;;;;;;15.60;10.53;;;8.90;72.70;;;;;;5004853;28;20198;-59
2024/03/02 05:55:31;;;;;;;17.77;12.67;;;8.90;73.10;;;;;;4998885;28;20226;-60
2024/03/02 06:00:32;;;;;;;17.83;11.97;;;9.00;72.20;;;;;;5007150;28;20289;-60
2024/03/02 06:02:57;;;;;;;14.93;11.80;;;9.00;72.50;;;;;;5006478;28;20464;-59
2024/03/02 06:05:24;;;;;;;16.63;13.13;;;8.80;72.90;;;;;;5007846;28;20185;-60
2024/03/02 06:07:50;;;;;;;16.77;12.10;;;8.80;73.90;;;;;;5006859;28;20499;-61
2024/03/02 06:10:15;;;;;;;17.80;12.90;;;8.90;73.30;;;;;;5002609;28;20420;-59
2024/03/02 06:12:41;;;;;;;18.60;12.20;;;8.90;72.80;;;;;;5007028;28;20190;-59
2024/03/02 06:15:07;;;;;;;16.90;10.70;;;9.00;72.70;;;;;;5012488;28;20213;-59
2024/03/02 06:17:34;;;;;;;15.67;12.40;;;9.20;72.20;;;;;;5012359;28;20206;-59
2024/03/02 06:20:00;;;;;;;17.30;10.67;;;9.50;73.90;;;;;;5012381;28;20421;-59
2024/03/02 06:22:26;;;;;;;15.13;10.97;;;9.90;73.90;;;;;;5013457;28;20483;-60
2024/03/02 06:24:51;;;;;;;14.20;10.07;;;10.20;71.30;;;;;;5009102;28;20654;-60
2024/03/02 06:27:17;;;;;;;14.40;11.13;;;10.30;70.00;;;;;;5008984;28;20268;-59
2024/03/02 06:29:42;;;;;;;13.87;9.97;;;10.50;69.00;;;;;;5007306;28;20597;-60
2024/03/02 06:32:08;;;;;;;13.53;11.40;;;10.70;67.60;;;;;;5006735;28;20198;-60
2024/03/02 06:34:33;;;;;;;12.77;10.40;;;10.90;66.40;;;;;;5011918;28;20208;-60
2024/03/02 06:36:59;;;;;;;13.90;10.90;;;11.00;64.80;;;;;;5017178;28;20261;-60
2024/03/02 06:39:25;;;;;;;14.00;10.20;;;11.10;64.80;;;;;;5011427;28;20186;-58
2024/03/02 06:41:51;;;;;;;15.10;10.60;;;11.20;63.00;;;;;;5008797;28;20568;-59
2024/03/02 06:44:17;;;;;;;12.10;10.10;;;11.20;61.40;;;;;;5009685;28;20456;-60
2024/03/02 06:46:42;;;;;;;14.03;11.00;;;11.20;61.80;;;;;;5012083;28;20452;-60
2024/03/02 06:49:10;;;;;;;13.87;10.50;;;11.30;61.40;;;;;;5007436;28;20197;-59
2024/03/02 06:51:36;;;;;;;12.43;9.57;;;11.30;60.90;;;;;;5011852;28;20614;-59
2024/03/02 06:54:01;;;;;;;12.27;10.47;;;11.40;60.90;;;;;;5011784;28;20461;-59
2024/03/02 06:56:27;;;;;;;12.77;10.47;;;11.50;60.40;;;;;;5011424;28;20213;-60
2024/03/02 06:58:52;;;;;;;12.23;9.97;;;11.60;59.80;;;;;;5006596;28;20240;-61
2024/03/02 07:01:18;;;;;;;14.60;10.87;;;11.60;59.70;;;;;;5010136;28;20240;-60
2024/03/02 07:03:43;;;;;;;13.20;10.83;;;11.60;59.50;;;;;;5008992;28;20224;-59
2024/03/02 07:06:09;;;;;;;17.17;12.47;;;11.70;59.20;;;;;;5009344;28;20217;-59
2024/03/02 07:08:35;;;;;;;13.00;10.63;;;11.70;59.10;;;;;;5010659;28;20189;-61
2024/03/02 07:11:00;;;;;;;14.83;11.97;;;11.70;59.10;;;;;;5008592;28;20555;-61
2024/03/02 07:13:26;;;;;;;14.17;11.07;;;11.80;59.10;;;;;;5007987;28;20224;-59
2024/03/02 07:18:41;;;;;;;12.37;9.30;;;11.70;59.00;;;;;;5009821;28;20460;-60
2024/03/02 07:21:07;;;;;;;14.00;10.97;;;11.50;58.70;;;;;;5006645;28;20916;-60
2024/03/02 07:23:33;;;;;;;13.77;11.03;;;11.40;59.80;;;;;;5008507;28;20482;-59
2024/03/02 07:26:01;;;;;;;15.00;10.27;;;11.40;60.30;;;;;;5013205;28;20432;-58
2024/03/02 07:28:27;;;;;;;14.10;10.20;;;11.50;60.00;;;;;;5007591;28;21690;-60
2024/03/02 07:30:59;;;;;;;14.23;10.60;;;11.70;59.90;;;;;;5006335;28;20524;-60
2024/03/02 07:33:25;;;;;;;15.57;10.10;;;11.70;60.00;;;;;;5006331;28;20448;-59
2024/03/02 07:35:51;;;;;;;21.03;10.70;;;11.80;60.50;;;;;;5016319;28;20998;-60
2024/03/02 07:38:16;;;;;;;15.30;10.80;;;12.00;60.50;;;;;;5026093;28;20263;-59
2024/03/02 07:40:42;;;;;;;13.27;10.97;;;12.00;59.80;;;;;;5007325;28;20206;-59
2024/03/02 07:43:08;;;;;;;15.30;11.40;;;11.90;60.00;;;;;;5025743;28;20177;-60
2024/03/02 07:45:36;;;;;;;14.80;11.60;;;12.10;60.30;;;;;;5009271;28;20193;-59
2024/03/02 07:48:03;;;;;;;13.40;10.40;;;12.30;60.20;;;;;;5018137;28;21077;-58
2024/03/02 07:50:30;;;;;;;12.20;10.50;;;12.40;60.20;;;;;;5017369;28;20950;-59
2024/03/02 07:52:55;;;;;;;14.93;11.00;;;12.50;60.00;;;;;;5010531;28;20445;-59
2024/03/02 07:55:21;;;;;;;10.93;9.70;;;12.70;59.40;;;;;;5007974;28;20818;-59
2024/03/02 07:57:47;;;;;;;12.30;10.40;;;12.80;59.80;;;;;;5007925;28;20209;-59
2024/03/02 08:00:13;;;;;;;11.10;9.57;;;13.00;59.40;;;;;;5010713;28;20178;-59
2024/03/02 08:02:40;;;;;;;15.50;11.13;;;12.90;59.90;;;;;;5005377;28;20240;-60
2024/03/02 08:05:06;;;;;;;10.63;9.27;;;12.80;61.00;;;;;;5008138;28;20438;-59
2024/03/02 08:07:32;;;;;;;14.67;10.63;;;12.80;61.00;;;;;;5004990;28;20816;-60
2024/03/02 08:09:57;;;;;;;12.70;10.80;;;13.10;61.20;;;;;;5007008;28;20193;-60
2024/03/02 08:12:23;;;;;;;12.70;9.57;;;13.10;60.80;;;;;;5010043;28;20551;-58
2024/03/02 08:14:49;;;;;;;14.03;10.60;;;13.30;60.50;;;;;;5011736;28;20654;-60
2024/03/02 08:17:14;;;;;;;12.30;9.87;;;13.30;60.60;;;;;;5013256;28;20995;-58
2024/03/02 08:19:40;;;;;;;12.27;9.70;;;13.30;60.90;;;;;;5011220;28;20182;-58
2024/03/02 08:22:06;;;;;;;13.37;9.30;;;13.10;61.30;;;;;;5016452;28;20185;-59
2024/03/02 08:24:32;;;;;;;15.63;10.60;;;13.10;61.20;;;;;;5021118;28;20863;-59
2024/03/02 08:27:00;;;;;;;9.40;8.40;;;13.00;61.30;;;;;;5009153;28;20461;-58
2024/03/02 08:29:25;;;;;;;10.73;9.47;;;12.90;62.10;;;;;;5013999;28;20500;-59
2024/03/02 08:31:51;;;;;;;11.23;8.80;;;13.00;61.80;;;;;;5008002;28;20536;-59
2024/03/02 08:34:16;;;;;;;10.50;9.30;;;13.20;61.50;;;;;;5006316;28;20574;-59
2024/03/02 08:36:42;;;;;;;11.53;9.20;;;13.20;60.80;;;;;;5007818;28;20207;-59
2024/03/02 08:39:15;;;;;;;12.60;10.30;;;13.20;60.70;;;;;;5005907;28;20599;-59
2024/03/02 08:41:42;;;;;;;12.60;9.80;;;13.20;61.40;;;;;;5004233;28;20281;-59
2024/03/02 08:44:08;;;;;;;12.53;9.13;;;13.30;61.40;;;;;;5009365;28;20440;-59
2024/03/02 08:46:33;;;;;;;11.00;9.13;;;13.40;60.40;;;;;;5007765;28;20827;-60
2024/03/02 08:48:59;;;;;;;12.03;8.70;;;13.30;60.80;;;;;;5009887;28;20213;-59
2024/03/02 08:51:24;;;;;;;9.30;8.33;;;13.10;60.40;;;;;;5005241;28;20191;-59
2024/03/02 08:53:50;;;;;;;10.53;9.20;;;13.00;61.60;;;;;;5007194;28;20185;-59
2024/03/02 08:56:16;;;;;;;10.97;7.80;;;13.00;61.90;;;;;;5006497;28;20260;-59
2024/03/02 08:58:42;;;;;;;8.53;7.67;;;13.10;61.90;;;;;;5014785;28;20269;-59
2024/03/02 09:01:08;;;;;;;10.73;8.37;;;13.20;61.10;;;;;;5010927;28;20188;-59
2024/03/02 09:03:34;;;;;;;12.13;8.23;;;13.20;60.40;;;;;;5013298;28;20447;-59
2024/03/02 09:06:00;;;;;;;9.57;7.97;;;13.20;60.90;;;;;;5008341;28;20248;-58
2024/03/02 09:08:26;;;;;;;8.57;6.83;;;13.40;61.10;;;;;;5013095;28;20516;-59
2024/03/02 09:10:51;;;;;;;14.00;8.07;;;13.50;60.80;;;;;;5005923;28;20685;-60
2024/03/02 09:13:17;;;;;;;9.13;7.80;;;13.70;61.40;;;;;;5002468;28;20205;-59
2024/03/02 09:15:44;;;;;;;8.37;7.43;;;13.70;60.70;;;;;;5007858;28;20701;-59
2024/03/02 09:18:10;;;;;;;8.33;7.40;;;13.50;60.70;;;;;;5004767;28;20190;-59
2024/03/02 09:20:35;;;;;;;9.50;8.00;;;13.60;61.50;;;;;;5008291;28;20459;-59
2024/03/02 09:23:01;;;;;;;8.60;7.30;;;13.80;60.50;;;;;;5008760;28;20227;-58
2024/03/02 09:25:27;;;;;;;9.40;6.47;;;14.10;59.50;;;;;;5009350;28;20181;-59
2024/03/02 09:27:52;;;;;;;8.07;6.47;;;14.20;58.10;;;;;;5008293;28;20733;-58
2024/03/02 09:30:18;;;;;;;7.47;6.70;;;14.50;58.40;;;;;;5003583;28;20186;-59
2024/03/02 09:32:43;;;;;;;6.60;5.90;;;14.80;57.30;;;;;;5006342;28;20244;-58
2024/03/02 09:35:09;;;;;;;8.03;6.00;;;14.90;57.20;;;;;;5004872;28;20252;-58
2024/03/02 09:37:35;;;;;;;7.80;6.70;;;15.20;56.10;;;;;;5006605;28;20246;-59
2024/03/02 09:40:01;;;;;;;6.93;6.20;;;15.40;55.80;;;;;;5005790;28;20190;-60
2024/03/02 09:42:27;;;;;;;6.87;5.93;;;15.60;54.70;;;;;;5005818;28;20998;-61
2024/03/02 09:44:53;;;;;;;6.60;6.00;;;15.60;54.50;;;;;;5003608;28;20432;-60
2024/03/02 09:47:19;;;;;;;7.37;6.67;;;15.80;54.90;;;;;;5003353;28;20225;-59
2024/03/02 09:49:44;;;;;;;8.30;6.60;;;16.10;54.50;;;;;;5012699;28;20455;-59
2024/03/02 09:52:10;;;;;;;6.33;5.73;;;16.40;54.00;;;;;;5014124;28;20185;-61
2024/03/02 09:54:36;;;;;;;8.77;6.70;;;16.60;53.10;;;;;;5010156;28;20560;-59
2024/03/02 09:57:03;;;;;;;6.50;5.73;;;16.80;53.00;;;;;;5021678;28;20446;-59
2024/03/02 09:59:29;;;;;;;5.87;5.37;;;17.00;51.90;;;;;;5011947;28;20201;-61
2024/03/02 10:02:02;;;;;;;4.80;4.30;;;17.00;51.50;;;;;;5011175;28;20871;-61
2024/03/02 10:04:30;;;;;;;5.20;4.70;;;17.00;51.10;;;;;;5006390;28;20429;-60
2024/03/02 10:07:16;;;;;;;7.50;5.83;;;17.20;51.30;;;;;;5011129;28;20516;-59
2024/03/02 10:09:44;;;;;;;9.13;4.67;;;17.30;51.40;;;;;;5011650;28;20825;-60
2024/03/02 10:12:11;;;;;;;5.60;5.10;;;17.30;51.00;;;;;;5011094;28;20829;-59
2024/03/02 10:14:37;;;;;;;4.87;4.33;;;17.60;50.60;;;;;;5010019;28;20503;-60
2024/03/02 10:17:05;;;;;;;4.10;3.40;;;17.80;50.10;;;;;;5008564;28;20488;-60
2024/03/02 10:19:32;;;;;;;3.33;3.03;;;17.90;48.10;;;;;;5010328;28;20547;-59
2024/03/02 10:21:59;;;;;;;3.63;3.33;;;18.00;46.80;;;;;;5012172;28;20984;-60
2024/03/02 10:24:25;;;;;;;4.47;3.27;;;18.10;46.80;;;;;;5009242;28;20944;-58
2024/03/02 10:26:52;;;;;;;3.30;3.00;;;18.20;46.80;;;;;;5009964;28;20778;-61
2024/03/02 10:29:18;;;;;;;3.20;3.00;;;18.50;46.40;;;;;;5011338;28;20456;-58
2024/03/02 10:31:48;;;;;;;3.17;2.87;;;18.60;45.00;;;;;;5010333;28;20539;-60
2024/03/02 10:34:15;;;;;;;3.83;3.43;;;18.80;44.80;;;;;;5010404;28;20480;-59
2024/03/02 10:36:43;;;;;;;5.63;3.43;;;18.70;44.60;;;;;;5010668;28;21007;-60
2024/03/02 10:39:10;;;;;;;2.70;2.50;;;18.90;44.90;;;;;;5009014;28;20441;-59
2024/03/02 10:41:37;;;;;;;3.43;3.07;;;18.30;45.00;;;;;;5008663;28;21047;-60
2024/03/02 10:44:04;;;;;;;3.30;3.00;;;18.60;45.50;;;;;;5010227;28;20452;-61
2024/03/02 10:46:31;;;;;;;4.73;3.13;;;18.50;45.00;;;;;;5009744;28;20456;-60
2024/03/02 10:49:01;;;;;;;3.43;2.83;;;19.00;46.10;;;;;;5008467;28;20453;-60
2024/03/02 10:51:28;;;;;;;3.30;3.00;;;18.90;45.70;;;;;;5009159;28;20436;-60
2024/03/02 10:53:54;;;;;;;3.30;3.00;;;19.40;44.40;;;;;;5009204;28;20448;-59
2024/03/02 10:56:29;;;;;;;3.40;3.10;;;19.80;43.60;;;;;;5011277;28;20445;-61
2024/03/02 10:59:28;;;;;;;4.50;2.50;;;20.00;43.10;;;;;;5015824;28;20216;-61
2024/03/02 11:01:59;;;;;;;3.77;3.03;;;20.20;42.20;;;;;;5011253;28;20428;-59
2024/03/02 11:04:26;;;;;;;3.03;2.83;;;20.20;42.10;;;;;;5015136;28;20424;-59
2024/03/02 11:06:54;;;;;;;3.10;2.90;;;20.40;42.10;;;;;;5014561;28;20475;-60
2024/03/02 11:09:22;;;;;;;4.10;3.07;;;20.60;41.80;;;;;;5010108;28;20424;-60
2024/03/02 11:11:57;;;;;;;2.97;2.70;;;20.80;41.90;;;;;;5011846;28;20512;-60
2024/03/02 11:14:25;;;;;;;3.10;2.80;;;21.10;41.20;;;;;;5006850;28;20472;-60
2024/03/02 11:16:52;;;;;;;3.20;2.73;;;21.30;41.60;;;;;;5010187;28;20461;-60
2024/03/02 11:19:18;;;;;;;2.90;2.70;;;20.80;40.30;;;;;;5010662;28;20436;-61
2024/03/02 11:21:44;;;;;;;2.70;2.00;;;21.10;41.60;;;;;;5008929;28;20470;-60
2024/03/02 11:24:25;;;;;;;2.73;2.53;;;21.20;39.70;;;;;;5006020;28;20445;-60
2024/03/02 11:26:51;;;;;;;2.33;2.13;;;21.00;40.30;;;;;;5010617;28;20448;-60
2024/03/02 11:29:35;;;;;;;3.00;2.70;;;21.10;40.80;;;;;;5009186;28;20811;-60
2024/03/02 11:32:01;;;;;;;2.83;2.60;;;21.40;40.90;;;;;;5008447;28;20510;-59
2024/03/02 11:34:30;;;;;;;2.53;2.33;;;21.30;41.40;;;;;;5006464;28;20480;-59
2024/03/02 11:36:56;;;;;;;2.67;2.47;;;21.60;41.40;;;;;;5004067;28;20471;-62
2024/03/02 11:39:22;;;;;;;2.43;2.23;;;21.70;40.70;;;;;;5005703;28;20441;-62
2024/03/02 11:41:48;;;;;;;4.00;2.60;;;21.80;39.50;;;;;;5003218;28;20875;-61
2024/03/02 11:44:15;;;;;;;2.13;2.00;;;22.00;40.40;;;;;;5009018;28;20515;-60
2024/03/02 11:46:40;;;;;;;1.90;1.80;;;22.10;39.60;;;;;;5009538;28;20206;-60
2024/03/02 11:49:06;;;;;;;3.63;2.10;;;22.50;40.50;;;;;;5009919;28;20435;-61
2024/03/02 11:51:34;;;;;;;1.87;1.77;;;22.80;40.20;;;;;;5007904;28;20197;-61
2024/03/02 11:54:00;;;;;;;1.83;1.73;;;23.20;39.60;;;;;;5004845;28;20217;-60
2024/03/02 11:56:28;;;;;;;2.60;1.70;;;23.30;37.50;;;;;;5007661;28;20507;-60
2024/03/02 11:58:54;;;;;;;1.37;1.27;;;23.50;36.90;;;;;;5006435;28;20465;-62
2024/03/02 12:01:20;;;;;;;1.30;1.20;;;23.70;37.50;;;;;;5004533;28;20449;-61
2024/03/02 12:03:46;;;;;;;1.70;1.60;;;23.80;36.60;;;;;;5003856;28;20896;-60
2024/03/02 12:06:13;;;;;;;1.80;1.63;;;23.80;36.10;;;;;;5006844;28;20527;-61
2024/03/02 12:08:38;;;;;;;4.37;1.50;;;23.40;38.00;;;;;;5003256;28;20217;-59
2024/03/02 12:11:06;;;;;;;1.60;1.50;;;23.50;37.50;;;;;;5013718;28;21437;-61
2024/03/02 12:13:32;;;;;;;1.20;1.10;;;23.60;36.80;;;;;;5009805;28;20186;-61
2024/03/02 12:15:58;;;;;;;1.37;1.27;;;23.70;35.80;;;;;;5008117;28;20518;-61
2024/03/02 12:18:25;;;;;;;1.40;1.30;;;23.90;36.50;;;;;;5009444;28;20457;-61
2024/03/02 12:20:58;;;;;;;1.70;1.23;;;23.70;34.90;;;;;;5009962;28;20182;-62
2024/03/02 12:23:24;;;;;;;1.67;1.30;;;23.30;35.80;;;;;;5007474;28;20459;-60
2024/03/02 12:25:50;;;;;;;1.13;1.03;;;23.40;37.20;;;;;;5007799;28;20476;-61
2024/03/02 12:28:16;;;;;;;1.20;1.10;;;23.80;37.10;;;;;;5004985;28;20588;-60
2024/03/02 12:30:42;;;;;;;1.50;1.40;;;23.90;35.90;;;;;;5009323;28;20538;-60
2024/03/02 12:33:07;;;;;;;1.40;1.30;;;23.60;35.40;;;;;;5008093;28;20182;-60
2024/03/02 12:35:33;;;;;;;1.33;1.23;;;23.60;35.80;;;;;;5007641;28;20220;-61
2024/03/02 12:37:58;;;;;;;1.20;1.10;;;23.30;35.70;;;;;;5008791;28;20284;-61
2024/03/02 12:40:24;;;;;;;1.27;1.17;;;23.30;37.40;;;;;;5008378;28;20178;-61